< Cyclone 201822 2018 Season Cyclone 201904 >
Cyclone 201824 (Iris)
General InformationTrack Information on Google MapsDetailed Wind InformationList of All Images || ResourceGoogle EarthGE AnimationAtom FeedGeoJSON
Detalied Best Track (Time Zone = UTC)
Year Month Day Hour Lat. Long. Pressure (hPa) Wind (kt) Class Image Chart
2018 3 19 18 -9.4 162.0 999 0 0 Image --
2018 3 20 00 -9.9 160.6 999 0 0 Image --
2018 3 20 06 -7.9 160.8 999 0 0 Image --
2018 3 20 12 -11.9 162.0 999 0 0 Image --
2018 3 20 18 -9.7 161.6 999 0 0 Image --
2018 3 21 00 -10.1 162.4 999 0 0 Image --
2018 3 21 06 -9.4 161.8 999 0 0 Image --
2018 3 21 12 -11.7 162.5 999 0 0 Image --
2018 3 21 18 -10.7 162.5 999 0 0 Image --
2018 3 22 00 -10.8 164.5 999 0 0 Image --
2018 3 22 03 -10.9 164.7 999 0 0 Image --
2018 3 22 06 -11.1 164.5 999 0 0 Image --
2018 3 22 09 -11.4 164.3 999 0 0 Image --
2018 3 22 12 -12.0 164.3 999 0 0 Image --
2018 3 22 15 -12.3 164.3 999 0 0 Image --
2018 3 22 18 -11.9 164.9 999 25 2 Image --
2018 3 22 21 -12.6 164.2 999 25 2 Image --
2018 3 23 00 -12.6 164.7 999 25 2 Image --
2018 3 23 03 -13.3 164.5 1000 25 2 Image --
2018 3 23 06 -13.3 163.5 1000 25 2 Image --
2018 3 23 09 -13.5 163.7 1000 25 2 Image --
2018 3 23 12 -13.4 162.4 999 25 2 Image --
2018 3 23 15 -13.4 161.9 998 35 3 Image --
2018 3 23 18 -13.7 161.5 993 40 3 Image --
2018 3 23 21 -13.7 161.2 993 40 3 Image --
2018 3 24 00 -13.7 160.5 995 35 3 Image --
2018 3 24 03 -14.0 160.2 995 35 3 Image --
2018 3 24 06 -14.1 159.8 997 35 3 Image --
2018 3 24 09 -14.2 160.1 999 35 3 Image --
2018 3 24 12 -14.2 159.7 998 33 2 Image --
2018 3 24 15 -14.1 159.5 998 35 3 Image --
2018 3 24 18 -14.1 159.2 998 35 3 Image --
2018 3 24 21 -14.2 158.5 1002 30 2 Image --
2018 3 25 00 -14.4 158.9 1000 30 2 Image --
2018 3 25 03 -14.0 159.0 1001 30 2 Image --
2018 3 25 06 -14.4 159.0 999 30 2 Image --
2018 3 25 09 -14.9 159.0 1001 30 2 Image --
2018 3 25 12 -15.4 158.3 1002 30 2 Image --
2018 3 25 15 -15.4 158.5 1001 30 2 Image --
2018 3 25 18 -15.5 158.7 1000 30 2 Image --
2018 3 25 21 -16.0 158.4 1001 30 2 Image --
2018 3 26 00 -16.5 158.1 1000 30 2 Image --
2018 3 26 03 -17.0 158.2 1000 30 2 Image --
2018 3 26 06 -17.4 158.0 1000 25 2 Image --
2018 3 26 12 -18.2 157.8 1001 25 2 Image --
2018 3 30 04 -18.6 153.6 1002 25 2 Image --
2018 3 30 06 -18.3 153.5 1002 25 2 Image --
2018 3 30 10 -17.7 153.2 1000 25 2 Image --
2018 3 30 12 -17.5 153.0 997 30 2 Image --
2018 3 30 14 -17.2 152.6 998 30 2 Image --
2018 3 30 16 -17.1 152.2 998 30 2 Image --
2018 3 30 18 -16.8 151.8 998 30 2 Image --
2018 3 30 20 -16.6 151.4 998 30 2 Image --
2018 3 30 22 -16.3 151.2 998 30 2 Image --
2018 3 31 00 -16.1 150.9 998 30 2 Image --
2018 3 31 02 -15.9 150.6 998 30 2 Image --
2018 3 31 04 -15.7 150.4 998 30 2 Image --
2018 3 31 06 -15.4 150.1 998 30 2 Image --
2018 3 31 08 -15.3 149.9 997 30 2 Image --
2018 3 31 18 -14.9 149.6 996 30 2 Image --
2018 4 1 00 -15.2 149.4 998 25 2 Image --
2018 4 1 04 -15.4 149.3 999 25 2 Image --
2018 4 1 06 -15.6 149.2 997 25 2 Image --
2018 4 1 12 -15.8 149.3 996 30 2 Image --
2018 4 1 18 -16.4 149.3 993 35 3 Image --
2018 4 1 21 -16.7 149.0 993 35 3 Image --
2018 4 2 00 -16.7 148.6 995 40 3 Image --
2018 4 2 03 -16.7 148.6 989 40 3 Image --
2018 4 2 06 -16.7 148.7 997 35 3 Image --
2018 4 2 09 -16.7 149.1 996 40 3 Image --
2018 4 2 12 -16.7 148.8 995 45 3 Image --
2018 4 2 15 -16.8 148.8 995 50 4 Image --
2018 4 2 18 -16.9 148.8 994 55 4 Image --
2018 4 2 21 -16.9 148.9 996 55 4 Image --
2018 4 3 00 -17.0 149.0 994 50 4 Image --
2018 4 3 03 -17.3 149.3 994 50 4 Image --
2018 4 3 06 -17.8 149.5 990 50 4 Image --
2018 4 3 09 -18.1 149.7 988 50 4 Image --
2018 4 3 12 -18.2 149.9 989 50 4 Image --
2018 4 3 15 -18.5 150.1 988 50 4 Image --
2018 4 3 18 -18.9 150.3 987 50 4 Image --
2018 4 3 21 -19.0 150.4 987 50 4 Image --
2018 4 4 00 -19.1 150.5 987 50 4 Image --
2018 4 4 03 -19.1 150.7 987 50 4 Image --
2018 4 4 06 -19.2 150.9 989 45 3 Image --
2018 4 4 09 -19.3 151.4 988 45 3 Image --
2018 4 4 12 -19.4 151.5 990 40 3 Image --
2018 4 4 18 -19.4 151.6 988 40 3 Image --
2018 4 5 00 -19.6 152.3 990 40 3 Image --
2018 4 5 03 -19.8 152.6 991 40 3 Image --
2018 4 5 06 -20.0 152.9 991 40 3 Image --
2018 4 5 09 -20.0 152.9 991.5 40 3 Image --
2018 4 5 12 -20.5 153.3 992 40 3 Image --
2018 4 5 18 -20.3 153.1 998 30 2 Image --
2018 4 6 00 -19.4 153.6 998.625 28.75 0 Image --
2018 4 6 06 -19.3 153.8 999.25 27.5 0 Image --
2018 4 7 00 -17.6 153.0 999.875 26.25 0 Image --
2018 4 7 06 -17.0 153.0 1000.5 25 0 Image --
2018 4 8 00 -16.0 153.9 1001.12 23.75 0 Image --
2018 4 8 06 -15.5 154.2 1001.75 22.5 0 Image --
2018 4 8 18 -15.1 154.3 1002.38 21.25 0 Image --
2018 4 9 00 -14.9 154.3 1003 20 2 Image --
2018 4 9 06 -14.7 154.3 1004 20 0 Image --
2018 4 9 20 -13.3 153.8 1005 20 2 Image --
< Cyclone 201822 2018 Season Cyclone 201904 >

Help